Time;durP1;ratioP1;P1;durP2;ratioP2;P2;SDS_P1;SDS_P2;PMS_P1;PMS_P2;Temp;Humidity;BMP_temperature;BMP_pressure;BME280_temperature;BME280_humidity;BME280_pressure;Samples;Min_cycle;Max_cycle;Signal;HPM_P1;HPM_P2
2023/02/14 00:00:45;;;;;;;32.73;24.97;;;9.00;1.00;;;;;;5045625;28;20178;-79
2023/02/14 00:03:14;;;;;;;35.17;26.23;;;9.10;1.00;;;;;;5041928;28;20177;-79
2023/02/14 00:05:40;;;;;;;35.77;24.70;;;9.00;1.00;;;;;;5038699;28;20192;-81
2023/02/14 00:08:06;;;;;;;35.60;26.60;;;9.00;1.00;;;;;;5038690;28;20165;-78
2023/02/14 00:10:32;;;;;;;36.00;25.90;;;9.00;1.00;;;;;;5040451;28;20231;-79
2023/02/14 00:12:57;;;;;;;31.57;24.43;;;9.00;1.00;;;;;;5052785;28;20200;-78
2023/02/14 00:15:23;;;;;;;33.03;23.87;;;9.00;1.00;;;;;;5056958;28;20184;-79
2023/02/14 00:17:53;;;;;;;35.13;24.87;;;9.10;1.00;;;;;;5058643;28;20209;-81
2023/02/14 00:20:22;;;;;;;32.33;24.50;;;9.00;1.00;;;;;;5052129;28;20189;-80
2023/02/14 00:22:49;;;;;;;29.67;24.33;;;9.00;1.00;;;;;;5042059;28;20165;-81
2023/02/14 00:25:18;;;;;;;33.10;24.47;;;8.90;1.00;;;;;;5033490;28;20166;-80
2023/02/14 00:27:44;;;;;;;30.43;24.03;;;8.90;1.00;;;;;;5022280;28;20182;-80
2023/02/14 00:30:12;;;;;;;32.30;24.80;;;8.80;1.00;;;;;;5018494;28;20669;-79
2023/02/14 00:32:40;;;;;;;27.97;23.07;;;8.80;1.00;;;;;;5018084;28;20194;-80
2023/02/14 00:35:07;;;;;;;33.43;25.03;;;8.80;1.00;;;;;;5016116;28;20177;-80
2023/02/14 00:37:33;;;;;;;31.60;24.53;;;8.80;1.00;;;;;;5018129;28;20212;-81
2023/02/14 00:40:00;;;;;;;33.30;25.80;;;8.80;1.00;;;;;;5038683;28;20174;-78
2023/02/14 00:42:26;;;;;;;31.87;23.83;;;8.80;1.00;;;;;;5038340;28;20182;-79
2023/02/14 00:44:54;;;;;;;30.87;24.33;;;8.70;1.00;;;;;;5032202;28;20236;-89
2023/02/14 00:47:21;;;;;;;31.73;24.53;;;8.80;1.00;;;;;;5023315;28;20162;-86
2023/02/14 00:49:47;;;;;;;31.47;25.03;;;8.80;1.00;;;;;;5023337;28;20178;-82
2023/02/14 00:52:12;;;;;;;30.47;24.60;;;8.80;1.00;;;;;;5022521;28;20266;-92
2023/02/14 00:54:38;;;;;;;33.63;25.37;;;8.70;1.00;;;;;;5024789;28;20173;-79
2023/02/14 00:57:04;;;;;;;37.03;26.73;;;8.80;1.00;;;;;;5026692;28;20182;-89
2023/02/14 00:59:29;;;;;;;32.80;25.43;;;8.80;1.00;;;;;;5035294;28;20167;-82
2023/02/14 01:01:56;;;;;;;34.40;23.93;;;8.60;1.00;;;;;;5031184;28;20174;-85
2023/02/14 01:04:22;;;;;;;30.30;23.63;;;8.70;1.00;;;;;;5029514;28;20182;-87
2023/02/14 01:06:47;;;;;;;36.27;26.73;;;8.60;1.40;;;;;;5026142;28;20269;-79
2023/02/14 01:09:13;;;;;;;33.77;25.67;;;8.60;1.00;;;;;;5029498;28;20175;-89
2023/02/14 01:11:39;;;;;;;34.43;25.47;;;8.70;1.00;;;;;;5027946;28;20186;-78
2023/02/14 01:14:05;;;;;;;36.07;26.03;;;8.60;1.00;;;;;;5033284;28;20293;-81
2023/02/14 01:16:31;;;;;;;32.10;25.30;;;8.60;1.00;;;;;;5032769;28;20221;-78
2023/02/14 01:18:59;;;;;;;34.57;26.03;;;8.50;1.60;;;;;;5031947;28;20166;-78
2023/02/14 01:21:30;;;;;;;32.50;25.43;;;8.50;2.70;;;;;;5025122;28;20292;-80
2023/02/14 01:23:59;;;;;;;31.57;25.10;;;8.40;3.10;;;;;;5019860;28;20620;-90
2023/02/14 01:26:26;;;;;;;32.27;25.60;;;8.40;3.40;;;;;;5017967;28;20174;-80
2023/02/14 01:28:52;;;;;;;31.37;24.57;;;8.30;5.40;;;;;;5028320;28;20193;-80
2023/02/14 01:31:26;;;;;;;31.47;26.53;;;8.40;2.80;;;;;;5022186;28;20170;-89
2023/02/14 01:33:52;;;;;;;34.83;25.40;;;8.40;1.00;;;;;;5017259;28;20170;-93
2023/02/14 01:36:27;;;;;;;34.63;25.90;;;8.30;1.00;;;;;;5014514;28;20178;-91
2023/02/14 01:38:59;;;;;;;34.23;25.33;;;8.20;2.80;;;;;;5018476;28;20174;-90
2023/02/14 01:41:27;;;;;;;33.30;24.10;;;8.00;7.60;;;;;;5021878;28;20260;-92
2023/02/14 01:43:56;;;;;;;35.23;25.40;;;8.00;12.10;;;;;;5025403;28;20178;-79
2023/02/14 01:46:22;;;;;;;32.97;25.57;;;7.90;15.40;;;;;;5023849;28;20202;-91
2023/02/14 01:48:49;;;;;;;31.70;24.03;;;7.70;18.40;;;;;;5018132;28;20236;-89
2023/02/14 01:51:18;;;;;;;33.97;25.83;;;7.60;21.80;;;;;;5017559;28;20229;-82
2023/02/14 01:53:44;;;;;;;35.70;26.17;;;7.90;22.30;;;;;;5017879;28;20166;-83
2023/02/14 01:56:20;;;;;;;35.17;26.97;;;7.70;22.60;;;;;;5014804;28;20222;-79
2023/02/14 01:58:51;;;;;;;37.77;27.53;;;7.70;22.70;;;;;;5016633;28;20197;-81
2023/02/14 02:01:17;;;;;;;36.50;28.37;;;7.60;23.10;;;;;;5017134;28;20159;-78
2023/02/14 02:03:50;;;;;;;38.40;29.73;;;7.70;22.90;;;;;;5019585;28;20170;-78
2023/02/14 02:06:18;;;;;;;36.30;29.13;;;7.70;23.10;;;;;;5019012;28;20170;-79
2023/02/14 02:09:08;;;;;;;36.37;30.03;;;7.60;22.30;;;;;;5017009;28;20179;-79
2023/02/14 02:11:34;;;;;;;38.17;29.10;;;7.60;22.40;;;;;;5001388;28;20190;-79
2023/02/14 02:13:59;;;;;;;38.77;30.10;;;7.50;22.50;;;;;;5022235;28;20198;-80
2023/02/14 02:16:59;;;;;;;36.07;27.93;;;7.50;22.00;;;;;;5016112;28;20654;-83
2023/02/14 02:19:37;;;;;;;38.33;28.10;;;7.50;23.90;;;;;;5014774;28;20654;-82
2023/02/14 02:22:33;;;;;;;33.90;27.67;;;7.60;23.10;;;;;;5015270;28;20189;-87
2023/02/14 02:25:23;;;;;;;35.83;27.97;;;7.40;22.40;;;;;;5015155;28;20171;-83
2023/02/14 02:28:20;;;;;;;32.23;26.13;;;7.40;24.50;;;;;;5028745;28;20182;-80
2023/02/14 02:31:04;;;;;;;34.37;25.33;;;7.30;23.40;;;;;;5026672;28;20180;-79
2023/02/14 02:33:50;;;;;;;31.67;23.97;;;7.30;25.00;;;;;;5021426;28;20178;-81
2023/02/14 02:37:05;;;;;;;34.67;24.40;;;7.30;26.00;;;;;;5014993;28;20642;-79
2023/02/14 02:39:37;;;;;;;40.67;25.23;;;7.30;25.30;;;;;;5015076;28;20635;-85
2023/02/14 02:42:14;;;;;;;30.53;24.17;;;7.40;23.30;;;;;;5016286;28;20178;-80
2023/02/14 02:44:57;;;;;;;31.63;26.00;;;7.30;23.10;;;;;;5027364;28;20170;-82
2023/02/14 02:47:29;;;;;;;33.37;24.03;;;7.30;23.80;;;;;;5034733;28;20185;-79
2023/02/14 02:53:04;;;;;;;33.40;24.70;;;7.10;26.40;;;;;;5015244;28;20220;-79
2023/02/14 02:59:17;;;;;;;30.13;24.03;;;7.10;28.50;;;;;;4973868;28;20604;-80
2023/02/14 03:01:48;;;;;;;31.50;23.97;;;7.10;29.70;;;;;;4981262;28;20176;-83
2023/02/14 03:07:33;;;;;;;36.57;26.27;;;7.10;28.10;;;;;;5018498;28;20182;-86
2023/02/14 03:09:56;;;;;;;32.90;23.67;;;7.20;28.20;;;;;;5037264;28;20226;-79
2023/02/14 03:12:34;;;;;;;32.73;24.93;;;7.20;26.80;;;;;;5035755;28;20174;-78
2023/02/14 03:15:47;;;;;;;33.87;25.07;;;7.20;25.70;;;;;;5024164;28;20174;-88
2023/02/14 03:21:28;;;;;;;31.57;23.17;;;7.10;24.20;;;;;;5021640;28;20217;-79
2023/02/14 03:24:10;;;;;;;32.47;24.33;;;7.10;23.50;;;;;;5031895;28;20201;-78
2023/02/14 03:27:01;;;;;;;33.17;24.90;;;7.30;21.80;;;;;;5033339;28;20181;-81
2023/02/14 03:29:40;;;;;;;31.00;23.93;;;7.20;18.00;;;;;;5037443;28;20165;-81
2023/02/14 03:32:29;;;;;;;29.33;23.27;;;7.30;17.40;;;;;;5030557;28;20186;-80
2023/02/14 03:35:19;;;;;;;30.23;23.43;;;7.10;19.40;;;;;;5028501;28;20189;-87
2023/02/14 03:38:07;;;;;;;34.10;24.53;;;7.10;20.20;;;;;;5027670;28;20285;-88
2023/02/14 03:40:43;;;;;;;31.60;23.83;;;7.10;19.50;;;;;;5028373;28;20547;-89
2023/02/14 03:43:16;;;;;;;34.63;25.10;;;7.20;19.40;;;;;;5024892;28;20236;-89
2023/02/14 03:45:48;;;;;;;33.70;23.27;;;7.20;18.60;;;;;;5024338;28;20227;-85
2023/02/14 03:48:16;;;;;;;30.73;24.60;;;7.30;18.80;;;;;;5022514;28;20163;-91
2023/02/14 03:50:46;;;;;;;35.20;25.30;;;7.20;17.80;;;;;;5019157;28;20166;-90
2023/02/14 03:53:13;;;;;;;31.97;24.53;;;7.30;14.80;;;;;;5021445;28;20158;-90
2023/02/14 03:56:13;;;;;;;35.73;24.77;;;7.40;11.10;;;;;;5020440;28;20630;-89
2023/02/14 03:58:45;;;;;;;28.33;23.13;;;7.20;12.10;;;;;;5018876;28;20182;-91
2023/02/14 04:01:26;;;;;;;29.30;24.17;;;7.10;16.20;;;;;;5036160;28;20166;-89
2023/02/14 04:03:55;;;;;;;31.77;23.93;;;7.00;19.80;;;;;;5041456;28;20208;-90
2023/02/14 04:06:22;;;;;;;31.57;24.23;;;6.90;22.00;;;;;;5042791;28;20169;-81
2023/02/14 04:08:48;;;;;;;31.43;23.77;;;6.90;23.40;;;;;;5056054;28;20208;-77
2023/02/14 04:11:14;;;;;;;31.40;23.47;;;6.90;24.20;;;;;;5057522;28;20166;-78
2023/02/14 04:13:39;;;;;;;31.43;23.50;;;6.90;25.00;;;;;;5055139;28;20530;-77
2023/02/14 04:16:06;;;;;;;30.93;24.43;;;7.00;24.00;;;;;;5057108;28;20174;-78
2023/02/14 04:21:17;;;;;;;34.20;25.67;;;7.00;23.40;;;;;;5057006;28;20300;-79
2023/02/14 04:23:42;;;;;;;30.93;25.43;;;7.00;23.20;;;;;;5055615;28;20181;-79
2023/02/14 04:26:09;;;;;;;35.03;24.60;;;7.10;21.40;;;;;;5054992;28;20170;-80
2023/02/14 04:28:35;;;;;;;33.47;25.10;;;7.10;19.50;;;;;;5051788;28;20182;-83
2023/02/14 04:31:05;;;;;;;29.70;22.83;;;7.10;18.20;;;;;;5020927;28;20178;-88
2023/02/14 04:33:32;;;;;;;29.47;23.07;;;7.00;19.00;;;;;;5020682;28;20205;-84
2023/02/14 04:35:59;;;;;;;35.07;23.77;;;7.00;19.40;;;;;;5022066;28;20537;-81
2023/02/14 04:38:27;;;;;;;30.60;24.03;;;6.90;19.90;;;;;;5020333;28;20206;-87
2023/02/14 04:40:52;;;;;;;29.57;23.10;;;7.10;17.40;;;;;;5020425;28;20253;-85
2023/02/14 04:43:19;;;;;;;31.97;23.17;;;6.90;15.00;;;;;;5020029;28;20662;-86
2023/02/14 04:45:46;;;;;;;30.77;23.13;;;6.70;16.10;;;;;;5019147;28;20166;-79
2023/02/14 04:48:13;;;;;;;30.87;22.73;;;6.60;18.10;;;;;;5018474;28;20174;-78
2023/02/14 04:50:38;;;;;;;30.47;22.30;;;6.50;21.40;;;;;;5016347;28;20235;-82
2023/02/14 04:53:04;;;;;;;29.90;23.10;;;6.50;24.10;;;;;;5016636;28;20226;-92
2023/02/14 04:55:30;;;;;;;30.97;24.07;;;6.50;24.20;;;;;;5026568;28;20163;-90
2023/02/14 04:57:56;;;;;;;31.07;23.33;;;6.60;24.50;;;;;;5031588;28;20214;-79
2023/02/14 05:00:22;;;;;;;29.07;24.00;;;6.60;23.20;;;;;;5023121;28;20220;-83
2023/02/14 05:02:48;;;;;;;29.00;22.63;;;6.70;21.90;;;;;;5019615;28;20170;-79
2023/02/14 05:05:14;;;;;;;31.20;23.40;;;6.60;21.50;;;;;;5017010;28;20170;-80
2023/02/14 05:07:41;;;;;;;31.13;23.73;;;6.70;20.70;;;;;;5019641;28;20174;-80
2023/02/14 05:10:07;;;;;;;35.73;24.73;;;6.70;20.40;;;;;;5021626;28;20534;-79
2023/02/14 05:12:33;;;;;;;37.30;25.30;;;6.50;19.20;;;;;;5019996;28;20179;-79
2023/02/14 05:14:59;;;;;;;39.60;27.63;;;6.40;20.10;;;;;;5031382;28;20163;-79
2023/02/14 05:17:25;;;;;;;39.73;27.80;;;6.50;21.40;;;;;;5038394;28;20674;-78
2023/02/14 05:19:51;;;;;;;40.13;26.80;;;6.40;19.80;;;;;;5032317;28;20637;-78
2023/02/14 05:22:17;;;;;;;32.50;24.60;;;6.20;21.20;;;;;;5022946;28;20190;-90
2023/02/14 05:24:43;;;;;;;34.13;24.30;;;6.20;23.00;;;;;;5018286;28;20513;-89
2023/02/14 05:27:11;;;;;;;30.20;23.13;;;6.10;24.40;;;;;;5025898;28;20174;-90
2023/02/14 05:29:37;;;;;;;32.00;22.90;;;6.20;23.90;;;;;;5044130;28;20177;-78
2023/02/14 05:32:02;;;;;;;29.93;22.80;;;6.30;23.40;;;;;;5053195;28;20169;-80
2023/02/14 05:34:28;;;;;;;30.00;22.93;;;6.30;22.30;;;;;;5046265;28;20681;-87
2023/02/14 05:36:54;;;;;;;31.63;22.50;;;6.30;21.60;;;;;;5038412;28;20654;-85
2023/02/14 05:39:19;;;;;;;29.37;22.43;;;6.30;19.50;;;;;;5039655;28;20177;-88
2023/02/14 05:41:45;;;;;;;31.27;22.00;;;6.30;20.60;;;;;;5038623;28;20638;-88
2023/02/14 05:44:11;;;;;;;33.60;24.10;;;6.40;20.00;;;;;;5041745;28;20629;-78
2023/02/14 05:46:36;;;;;;;27.90;21.33;;;6.30;19.80;;;;;;5051847;28;20833;-86
2023/02/14 05:49:02;;;;;;;30.03;22.07;;;6.40;17.80;;;;;;5042053;28;20630;-91
2023/02/14 05:51:28;;;;;;;31.60;22.27;;;6.30;18.60;;;;;;5039858;28;20173;-85
2023/02/14 05:53:54;;;;;;;29.27;22.27;;;6.30;19.20;;;;;;5055968;28;20220;-81
2023/02/14 05:56:19;;;;;;;30.83;22.07;;;6.30;18.90;;;;;;5054081;28;20583;-82
2023/02/14 05:58:45;;;;;;;29.60;21.63;;;6.20;19.80;;;;;;5049495;28;20182;-87
2023/02/14 06:01:14;;;;;;;31.87;22.67;;;6.20;19.80;;;;;;5048087;28;20173;-90
2023/02/14 06:03:40;;;;;;;32.13;23.47;;;6.30;19.10;;;;;;5041087;28;20177;-92
2023/02/14 06:06:06;;;;;;;29.27;21.70;;;6.30;17.70;;;;;;5037177;28;20184;-86
2023/02/14 06:08:37;;;;;;;35.23;21.97;;;6.30;17.60;;;;;;5043362;28;20173;-81
2023/02/14 06:11:03;;;;;;;34.87;23.77;;;6.30;17.40;;;;;;5046510;28;20176;-79
2023/02/14 06:13:28;;;;;;;32.80;22.67;;;6.30;17.80;;;;;;5058240;28;20182;-80
2023/02/14 06:15:54;;;;;;;35.37;23.37;;;6.20;17.60;;;;;;5053020;28;20189;-79
2023/02/14 06:18:20;;;;;;;31.53;21.40;;;6.30;17.60;;;;;;5051201;28;20232;-89
2023/02/14 06:20:47;;;;;;;31.43;22.93;;;6.10;17.80;;;;;;5038641;28;20220;-88
2023/02/14 06:23:13;;;;;;;31.77;22.67;;;6.10;18.60;;;;;;5038317;28;20183;-88
2023/02/14 06:25:39;;;;;;;30.70;23.27;;;6.20;18.80;;;;;;5038793;28;20201;-90
2023/02/14 06:28:05;;;;;;;30.67;22.67;;;6.30;17.60;;;;;;5037428;28;20184;-90
2023/02/14 06:30:31;;;;;;;29.00;21.67;;;6.30;16.10;;;;;;5039676;28;20180;-89
2023/02/14 06:32:56;;;;;;;32.17;23.20;;;6.40;15.80;;;;;;5041034;28;20178;-82
2023/02/14 06:35:22;;;;;;;29.90;22.07;;;6.20;15.10;;;;;;5043337;28;20181;-89
2023/02/14 06:37:48;;;;;;;32.70;22.80;;;6.40;15.90;;;;;;5043512;28;20219;-91
2023/02/14 06:40:14;;;;;;;32.70;22.90;;;6.20;16.10;;;;;;5042436;28;20174;-84
2023/02/14 06:42:40;;;;;;;31.80;22.57;;;6.30;16.90;;;;;;5041361;28;20523;-89
2023/02/14 06:45:14;;;;;;;31.90;22.53;;;6.20;16.00;;;;;;5049755;28;20177;-83
2023/02/14 06:47:40;;;;;;;31.70;23.60;;;6.30;15.90;;;;;;5039426;28;20180;-90
2023/02/14 06:50:06;;;;;;;33.47;23.50;;;6.30;15.70;;;;;;5044971;28;20158;-92
2023/02/14 06:52:41;;;;;;;32.63;22.47;;;6.30;15.70;;;;;;5051139;28;20282;-91
2023/02/14 06:55:10;;;;;;;31.33;22.50;;;6.30;14.70;;;;;;5041160;28;20178;-81
2023/02/14 06:57:43;;;;;;;32.27;22.97;;;6.30;14.00;;;;;;5056358;28;20189;-83
2023/02/14 07:00:10;;;;;;;32.30;23.63;;;6.40;13.20;;;;;;5051838;28;20174;-94
2023/02/14 07:02:36;;;;;;;34.40;22.87;;;6.40;12.20;;;;;;5049017;28;20570;-83
2023/02/14 07:05:01;;;;;;;31.37;23.33;;;6.30;12.80;;;;;;5024307;28;20184;-86
2023/02/14 07:07:27;;;;;;;29.43;23.67;;;6.40;12.50;;;;;;5023361;28;20196;-84
2023/02/14 07:09:53;;;;;;;32.63;23.40;;;6.40;12.70;;;;;;5024093;28;20536;-87
2023/02/14 07:12:18;;;;;;;32.40;24.00;;;6.40;12.10;;;;;;5026596;28;20236;-87
2023/02/14 07:14:44;;;;;;;33.60;23.23;;;6.40;11.90;;;;;;5045699;28;20170;-83
2023/02/14 07:17:09;;;;;;;35.80;24.33;;;6.40;12.50;;;;;;5043571;28;20685;-89
2023/02/14 07:19:35;;;;;;;34.90;23.23;;;6.30;13.60;;;;;;5041205;28;20177;-93
2023/02/14 07:22:01;;;;;;;35.17;24.30;;;6.40;13.40;;;;;;5059033;28;20197;-84
2023/02/14 07:24:26;;;;;;;31.70;24.53;;;6.40;14.80;;;;;;5048030;28;20181;-80
2023/02/14 07:26:52;;;;;;;31.83;23.07;;;6.40;13.40;;;;;;5032086;28;20166;-79
2023/02/14 07:29:18;;;;;;;36.30;22.93;;;6.30;15.90;;;;;;5047747;28;20189;-82
2023/02/14 07:31:44;;;;;;;34.43;22.20;;;6.30;16.40;;;;;;5053869;28;20170;-84
2023/02/14 07:34:11;;;;;;;29.80;22.67;;;6.20;17.20;;;;;;5043885;28;20178;-85
2023/02/14 07:36:37;;;;;;;43.67;22.67;;;6.10;19.00;;;;;;5038182;28;20334;-85
2023/02/14 07:39:04;;;;;;;31.43;22.87;;;6.10;19.70;;;;;;5045215;28;20178;-82
2023/02/14 07:41:29;;;;;;;32.20;22.63;;;6.10;21.00;;;;;;5065839;28;20179;-80
2023/02/14 07:43:55;;;;;;;31.60;24.17;;;6.10;22.20;;;;;;5070512;28;20201;-79
2023/02/14 07:46:21;;;;;;;33.57;22.30;;;5.80;23.30;;;;;;5059754;28;20182;-82
2023/02/14 07:48:50;;;;;;;35.13;23.80;;;6.00;24.70;;;;;;5047540;28;20232;-87
2023/02/14 07:51:16;;;;;;;36.00;23.80;;;5.90;26.60;;;;;;5041303;28;20196;-87
2023/02/14 07:53:42;;;;;;;35.50;23.77;;;6.10;26.50;;;;;;5056558;28;20181;-83
2023/02/14 07:56:07;;;;;;;33.60;24.60;;;6.00;25.30;;;;;;5047488;28;20272;-80
2023/02/14 07:58:34;;;;;;;31.63;22.63;;;5.90;29.00;;;;;;5043103;28;20699;-79
2023/02/14 08:01:00;;;;;;;39.60;24.33;;;5.90;33.20;;;;;;5038151;28;20331;-87
2023/02/14 08:03:25;;;;;;;38.20;23.63;;;6.10;35.20;;;;;;5057599;28;20772;-88
2023/02/14 08:05:55;;;;;;;35.87;23.60;;;6.20;35.10;;;;;;5053319;28;20177;-79
2023/02/14 08:08:23;;;;;;;30.97;23.67;;;6.40;33.30;;;;;;5042392;28;20180;-85
2023/02/14 08:10:48;;;;;;;34.00;23.53;;;6.50;29.80;;;;;;5050773;28;20185;-89
2023/02/14 08:13:14;;;;;;;35.80;23.17;;;6.50;29.00;;;;;;5055693;28;20708;-85
2023/02/14 08:18:26;;;;;;;35.63;24.20;;;6.80;21.90;;;;;;5052086;28;20269;-78
2023/02/14 08:20:52;;;;;;;38.80;24.90;;;6.90;11.50;;;;;;5063987;28;20181;-85
2023/02/14 08:23:19;;;;;;;34.67;23.50;;;6.90;7.70;;;;;;5059849;28;20178;-81
2023/02/14 08:25:49;;;;;;;35.20;24.00;;;6.90;9.90;;;;;;5061377;28;20177;-79
2023/02/14 08:28:16;;;;;;;36.03;23.87;;;7.10;12.00;;;;;;5051091;28;20182;-82
2023/02/14 08:30:43;;;;;;;38.43;24.30;;;7.00;14.20;;;;;;5046137;28;20180;-80
2023/02/14 08:33:09;;;;;;;37.30;25.90;;;7.00;15.70;;;;;;5051540;28;20177;-85
2023/02/14 08:35:37;;;;;;;34.20;24.80;;;7.10;17.70;;;;;;5055415;28;20177;-89
2023/02/14 08:38:03;;;;;;;39.30;25.23;;;7.20;18.50;;;;;;5052357;28;20292;-90
2023/02/14 08:40:31;;;;;;;35.03;24.27;;;7.30;18.30;;;;;;5061320;28;20210;-79
2023/02/14 08:42:57;;;;;;;37.30;24.30;;;7.40;16.40;;;;;;5063977;28;20215;-81
2023/02/14 08:45:23;;;;;;;34.07;24.60;;;7.50;15.00;;;;;;5058193;28;20165;-78
2023/02/14 08:47:52;;;;;;;36.80;25.30;;;7.70;14.20;;;;;;5055533;28;20176;-88
2023/02/14 08:50:18;;;;;;;32.53;22.97;;;7.90;12.30;;;;;;5041914;28;20193;-83
2023/02/14 08:52:44;;;;;;;36.37;23.57;;;8.00;8.90;;;;;;5052260;28;20173;-87
2023/02/14 08:55:11;;;;;;;32.90;24.03;;;8.00;4.80;;;;;;5056758;28;20185;-89
2023/02/14 08:57:38;;;;;;;33.17;24.33;;;8.20;1.70;;;;;;5039981;28;20371;-90
2023/02/14 09:00:05;;;;;;;33.67;24.47;;;8.30;1.00;;;;;;5061473;28;20184;-78
2023/02/14 09:02:31;;;;;;;38.20;24.80;;;8.50;1.00;;;;;;5066351;28;20170;-79
2023/02/14 09:04:56;;;;;;;31.00;23.20;;;8.70;1.00;;;;;;5061614;28;20173;-79
2023/02/14 09:07:23;;;;;;;34.17;23.60;;;8.70;1.00;;;;;;5045954;28;20220;-81
2023/02/14 09:09:51;;;;;;;37.00;24.13;;;8.80;1.00;;;;;;5046050;28;20166;-84
2023/02/14 09:12:17;;;;;;;36.70;24.17;;;8.90;1.00;;;;;;5041482;28;20196;-90
2023/02/14 09:14:44;;;;;;;32.07;23.93;;;9.00;1.00;;;;;;5044395;28;20276;-91
2023/02/14 09:17:12;;;;;;;34.57;24.53;;;8.80;1.00;;;;;;5041702;28;20313;-89
2023/02/14 09:19:38;;;;;;;30.87;23.57;;;8.80;1.00;;;;;;5055601;28;20181;-91
2023/02/14 09:22:06;;;;;;;34.07;24.30;;;9.00;1.00;;;;;;5043994;28;20173;-85
2023/02/14 09:24:33;;;;;;;35.33;24.80;;;9.00;1.00;;;;;;5024717;28;20189;-88
2023/02/14 09:26:59;;;;;;;32.70;23.73;;;9.10;1.00;;;;;;5043518;28;20201;-86
2023/02/14 09:29:26;;;;;;;32.77;22.83;;;9.10;1.00;;;;;;5048679;28;20177;-85
2023/02/14 09:31:58;;;;;;;33.77;23.07;;;9.30;1.00;;;;;;5060074;28;20175;-80
2023/02/14 09:34:25;;;;;;;31.17;23.30;;;9.40;1.00;;;;;;5048379;28;20181;-84
2023/02/14 09:39:35;;;;;;;32.03;21.87;;;9.60;1.00;;;;;;5048888;28;20199;-89
2023/02/14 09:42:23;;;;;;;35.10;23.57;;;9.70;1.00;;;;;;5040923;28;20185;-83
2023/02/14 09:44:55;;;;;;;30.67;22.23;;;9.70;1.00;;;;;;5034405;28;20181;-87
2023/02/14 09:47:43;;;;;;;33.07;22.60;;;9.70;1.00;;;;;;5057942;28;20187;-81
2023/02/14 09:50:33;;;;;;;28.57;22.80;;;9.60;1.00;;;;;;5063006;28;20188;-82
2023/02/14 09:53:21;;;;;;;32.50;22.37;;;9.70;1.00;;;;;;5072756;28;20187;-80
2023/02/14 09:56:16;;;;;;;31.27;22.67;;;9.70;1.00;;;;;;5056646;28;20172;-80
2023/02/14 09:58:58;;;;;;;30.20;24.20;;;9.70;1.00;;;;;;5070049;28;20212;-87
2023/02/14 10:01:59;;;;;;;33.90;23.03;;;9.90;1.00;;;;;;5046629;28;20181;-79
2023/02/14 10:04:37;;;;;;;29.87;22.40;;;10.40;1.00;;;;;;4999598;28;20186;-80
2023/02/14 10:07:53;;;;;;;31.77;23.07;;;10.40;1.00;;;;;;5062924;28;20183;-80
2023/02/14 10:10:25;;;;;;;30.77;22.07;;;10.50;1.00;;;;;;5069802;28;20157;-79
2023/02/14 10:13:05;;;;;;;28.57;22.27;;;10.70;1.00;;;;;;5053066;28;20191;-79
2023/02/14 10:15:35;;;;;;;30.20;22.70;;;10.80;1.00;;;;;;5052332;28;20227;-80
2023/02/14 10:18:24;;;;;;;34.53;24.03;;;10.80;1.00;;;;;;5021692;28;20228;-86
2023/02/14 10:20:53;;;;;;;30.03;23.17;;;11.00;1.00;;;;;;5039599;28;20165;-81
2023/02/14 10:23:24;;;;;;;29.67;23.03;;;11.40;1.00;;;;;;5045707;28;20173;-83
2023/02/14 10:26:04;;;;;;;31.63;23.17;;;11.40;1.00;;;;;;5038999;28;20178;-80
2023/02/14 10:28:44;;;;;;;32.37;23.20;;;11.40;1.00;;;;;;5040151;28;20208;-86
2023/02/14 10:31:22;;;;;;;31.60;23.50;;;11.40;1.00;;;;;;5045640;28;20191;-81
2023/02/14 10:34:17;;;;;;;29.27;21.37;;;11.60;1.00;;;;;;5053809;28;20251;-86
2023/02/14 10:37:03;;;;;;;31.37;23.43;;;11.60;1.00;;;;;;5043775;28;20246;-81
2023/02/14 10:40:01;;;;;;;29.90;22.97;;;11.80;1.00;;;;;;5058694;28;20233;-89
2023/02/14 10:42:56;;;;;;;35.03;23.37;;;11.80;1.00;;;;;;5051980;28;20256;-89
2023/02/14 10:45:46;;;;;;;29.03;22.70;;;11.80;1.00;;;;;;5045707;28;20208;-80
2023/02/14 10:48:33;;;;;;;31.57;23.80;;;12.00;1.00;;;;;;5061295;28;20248;-85
2023/02/14 10:51:17;;;;;;;32.33;23.77;;;12.10;1.00;;;;;;5044639;28;20190;-87
2023/02/14 10:54:05;;;;;;;33.23;23.43;;;12.20;1.00;;;;;;5054140;28;20252;-84
2023/02/14 10:56:40;;;;;;;34.63;24.60;;;12.20;1.00;;;;;;5050306;28;20196;-83
2023/02/14 10:59:50;;;;;;;32.73;24.13;;;12.20;1.00;;;;;;5038189;28;20173;-84
2023/02/14 11:02:18;;;;;;;34.13;25.13;;;12.20;1.00;;;;;;5031777;28;20193;-89
2023/02/14 11:04:46;;;;;;;35.70;25.87;;;12.10;1.00;;;;;;5047017;28;20170;-91
2023/02/14 11:07:17;;;;;;;34.13;24.30;;;12.00;1.00;;;;;;5045662;28;20173;-86
2023/02/14 11:09:44;;;;;;;31.33;24.57;;;12.20;1.00;;;;;;5045513;28;20177;-91
2023/02/14 11:12:10;;;;;;;31.77;23.37;;;12.10;1.00;;;;;;5045387;28;20205;-86
2023/02/14 11:14:38;;;;;;;31.27;24.43;;;12.10;1.00;;;;;;5047537;28;20227;-83
2023/02/14 11:17:28;;;;;;;36.00;25.93;;;12.20;1.00;;;;;;5044403;28;20295;-86
2023/02/14 11:20:21;;;;;;;31.97;25.33;;;12.30;1.00;;;;;;5040864;28;20201;-89
2023/02/14 11:22:48;;;;;;;33.27;24.20;;;12.40;1.00;;;;;;5062092;28;20153;-80
2023/02/14 11:25:30;;;;;;;39.77;24.37;;;12.40;1.00;;;;;;5059242;28;20205;-79
2023/02/14 11:28:11;;;;;;;36.57;24.60;;;12.50;1.00;;;;;;5051465;28;20172;-90
2023/02/14 11:30:44;;;;;;;32.80;24.00;;;12.60;1.00;;;;;;5044838;28;20178;-90
2023/02/14 11:33:38;;;;;;;37.50;24.80;;;12.70;1.00;;;;;;5027683;28;20162;-90
2023/02/14 11:36:13;;;;;;;31.63;23.03;;;12.80;1.00;;;;;;5032337;28;20163;-83
2023/02/14 11:38:40;;;;;;;34.33;24.73;;;12.90;1.00;;;;;;5024070;28;20193;-90
2023/02/14 11:41:10;;;;;;;31.03;23.90;;;13.00;1.00;;;;;;5043383;28;20186;-82
2023/02/14 11:43:42;;;;;;;33.33;23.67;;;13.20;1.00;;;;;;5040511;28;20176;-79
2023/02/14 11:46:19;;;;;;;30.90;23.33;;;13.10;1.00;;;;;;5033827;28;20189;-87
2023/02/14 11:49:11;;;;;;;33.97;24.53;;;13.30;1.00;;;;;;5040557;28;20193;-81
2023/02/14 11:51:42;;;;;;;33.93;24.10;;;13.30;1.00;;;;;;5031335;28;20190;-90
2023/02/14 11:54:21;;;;;;;35.53;25.03;;;13.30;1.00;;;;;;5024015;28;20167;-81
2023/02/14 11:56:56;;;;;;;33.83;24.87;;;13.40;1.00;;;;;;5021584;28;20199;-81
2023/02/14 11:59:33;;;;;;;32.83;24.77;;;13.30;1.00;;;;;;5026555;28;20265;-80
2023/02/14 12:02:09;;;;;;;33.53;24.60;;;13.40;1.00;;;;;;5039014;28;20248;-80
2023/02/14 12:04:39;;;;;;;33.70;24.47;;;13.50;1.00;;;;;;5039971;28;20205;-80
2023/02/14 12:07:32;;;;;;;35.50;24.47;;;13.60;1.00;;;;;;5038110;28;20178;-81
2023/02/14 12:10:07;;;;;;;35.00;25.03;;;13.60;1.00;;;;;;5041905;28;20182;-89
2023/02/14 12:12:34;;;;;;;35.43;26.20;;;13.60;1.00;;;;;;5046611;28;20169;-85
2023/02/14 12:15:33;;;;;;;38.50;24.80;;;13.70;1.00;;;;;;5046899;28;20186;-88
2023/02/14 12:18:27;;;;;;;35.30;24.47;;;13.70;1.00;;;;;;5041515;28;20201;-84
2023/02/14 12:21:35;;;;;;;33.87;25.07;;;14.00;1.00;;;;;;5043708;28;20164;-81
2023/02/14 12:24:20;;;;;;;39.27;26.00;;;14.20;1.00;;;;;;5042128;28;20180;-85
2023/02/14 12:27:04;;;;;;;32.43;25.27;;;14.10;1.00;;;;;;5053313;28;20177;-83
2023/02/14 12:29:33;;;;;;;34.70;24.57;;;14.10;1.00;;;;;;5057733;28;20223;-84
2023/02/14 12:32:19;;;;;;;34.53;24.97;;;14.00;1.00;;;;;;5053266;28;20172;-82
2023/02/14 12:34:47;;;;;;;30.10;23.93;;;14.10;1.00;;;;;;5042494;28;20191;-92
2023/02/14 12:37:20;;;;;;;35.80;24.83;;;14.20;1.00;;;;;;5040281;28;20227;-91
2023/02/14 12:40:01;;;;;;;34.70;25.07;;;14.20;99.90;;;;;;5043198;28;20263;-90
2023/02/14 12:43:04;;;;;;;37.03;24.90;;;14.20;99.90;;;;;;5043541;28;20183;-90
2023/02/14 12:46:03;;;;;;;35.30;25.77;;;14.30;99.90;;;;;;5043503;28;20198;-88
2023/02/14 12:48:29;;;;;;;30.67;23.63;;;14.30;1.00;;;;;;5046006;28;20256;-89
2023/02/14 12:51:16;;;;;;;36.83;25.37;;;14.40;99.90;;;;;;5052221;28;20177;-87
2023/02/14 12:54:20;;;;;;;34.10;25.17;;;14.50;99.90;;;;;;5036149;28;20181;-85
2023/02/14 12:57:10;;;;;;;34.20;24.40;;;14.60;99.90;;;;;;5046601;28;20729;-83
2023/02/14 12:59:57;;;;;;;36.00;24.90;;;14.70;99.90;;;;;;5044255;28;20263;-85
2023/02/14 13:02:44;;;;;;;35.00;25.50;;;14.80;99.90;;;;;;5043213;28;20166;-87
2023/02/14 13:05:18;;;;;;;35.93;24.83;;;14.80;99.90;;;;;;5044417;28;20183;-84
2023/02/14 13:07:59;;;;;;;34.60;24.57;;;14.80;99.90;;;;;;5043047;28;20204;-85
2023/02/14 13:10:36;;;;;;;35.67;27.23;;;15.00;99.90;;;;;;5044606;28;20181;-88
2023/02/14 13:13:22;;;;;;;36.03;27.47;;;14.80;99.90;;;;;;5047140;28;20231;-89
2023/02/14 13:15:59;;;;;;;33.73;25.73;;;14.90;99.90;;;;;;5057032;28;20192;-81
2023/02/14 13:18:43;;;;;;;37.07;27.53;;;15.00;99.90;;;;;;5054857;28;20668;-91
2023/02/14 13:21:13;;;;;;;33.17;25.90;;;15.20;99.90;;;;;;5043929;28;20196;-92
2023/02/14 13:23:46;;;;;;;35.73;26.23;;;15.20;99.90;;;;;;5043010;28;20162;-88
2023/02/14 13:26:17;;;;;;;30.77;24.90;;;15.20;99.90;;;;;;5043476;28;20154;-83